Scf Baltica — A8IA5 — position and weather

sailwx.info

Track history (hours):
 
Tides and Currents Weather Stations Pressure Air Temp Water Temp Dewpoint Dewpoint Depression Visibility Wind Speed Wind Dir Waves Ship Positions

Scf Baltica

Last reported at 2016-Aug-29 23:29 UTC. Time now 2016-Aug-30 05:02 UTC.
Position N 60°20' E 028°42'.

Length 250 m; draft 9.1 m.

Type: Ship. MMSI: 636012813.

Date/timePositionNaut miles runAvg speedWind from/ knotsBaromVisibWave heightAir tempDewpointWater temp
2016-Aug-29 23:29N 60°20' E 028°42'1 1.6
2016-Aug-29 22:33N 60°19' E 028°43'7 7.2
2016-Aug-29 21:34N 60°11' E 028°44'1010.4
2016-Aug-29 20:33N 60°02' E 028°34'3 2.7
2016-Aug-29 19:32N 60°01' E 028°29'0 0.0
2016-Aug-29 18:32N 60°01' E 028°29'0 0.0
2016-Aug-29 17:23N 60°01' E 028°29'0 0.0
2016-Aug-29 16:23N 60°01' E 028°29'0 0.0
2016-Aug-29 15:26N 60°01' E 028°29'0 0.0
2016-Aug-29 14:26N 60°01' E 028°29'0 0.0
2016-Aug-29 13:26N 60°01' E 028°29'0 0.0
2016-Aug-29 12:29N 60°01' E 028°29'0 0.0
2016-Aug-29 11:29N 60°01' E 028°29'0 0.0
2016-Aug-29 10:29N 60°01' E 028°29'0 0.0
2016-Aug-29 09:32N 60°01' E 028°29'0 0.0
2016-Aug-29 08:32N 60°01' E 028°29'0 0.0
2016-Aug-29 07:32N 60°01' E 028°29'0 0.0
2016-Aug-29 06:32N 60°01' E 028°29'0 0.0
2016-Aug-29 05:32N 60°01' E 028°29'0 0.0
2016-Aug-29 04:32N 60°01' E 028°29'0 0.0
2016-Aug-29 03:32N 60°01' E 028°29'0 0.1
2016-Aug-29 02:23N 60°01' E 028°29'0 0.0
2016-Aug-29 01:26N 60°01' E 028°29'0 0.0
2016-Aug-29 00:26N 60°01' E 028°29'0 0.0
2016-Aug-28 23:26N 60°01' E 028°29'0 0.0
2016-Aug-28 22:29N 60°01' E 028°29'0 0.0
2016-Aug-28 21:29N 60°01' E 028°29'0 0.0
2016-Aug-28 20:32N 60°01' E 028°29'0 0.1
2016-Aug-28 19:32N 60°01' E 028°29'0 0.1
2016-Aug-28 18:32N 60°01' E 028°29'0 0.1
2016-Aug-28 17:32N 60°01' E 028°29'0 0.0
2016-Aug-28 16:32N 60°01' E 028°29'0 0.0
2016-Aug-28 15:32N 60°01' E 028°29'1 0.6
2016-Aug-28 14:33N 60°01' E 028°30'9 8.5
2016-Aug-28 13:33N 60°07' E 028°17'10 9.7
2016-Aug-28 12:33N 60°09' E 027°58'11 9.1
2016-Aug-28 11:23N 60°08' E 027°37'910.3
2016-Aug-28 10:32N 60°03' E 027°22'19 9.4
2016-Aug-28 08:33N 59°59' E 026°46'1410.0
2016-Aug-28 07:09N 59°57' E 026°18'38 9.9
2016-Aug-28 03:19N 59°48' E 025°04'7 9.8
2016-Aug-28 02:33N 59°46' E 024°50'12 9.8
2016-Aug-28 01:22N 59°44' E 024°27'17 9.6
2016-Aug-27 23:33N 59°38' E 023°55'10 9.7
2016-Aug-27 22:33N 59°35' E 023°36'10 9.9
2016-Aug-27 21:31N 59°32' E 023°17'21 9.7
2016-Aug-27 19:19N 59°25' E 022°38'8 9.7
2016-Aug-27 18:31N 59°20' E 022°26'1010.0
2016-Aug-27 17:33N 59°14' E 022°11'28510.1
2016-Aug-26 13:20N 55°48' E 016°04'910.4
2016-Aug-26 12:30N 55°44' E 015°51'1010.8
2016-Aug-26 11:33N 55°39' E 015°35'1111.0
2016-Aug-26 10:34N 55°34' E 015°18'1110.6
2016-Aug-26 09:33N 55°29' E 015°01'1010.4
2016-Aug-26 08:33N 55°25' E 014°44'1010.2
2016-Aug-26 07:34N 55°18' E 014°32'1010.2
2016-Aug-26 06:33N 55°10' E 014°20'20 9.9
2016-Aug-26 04:32N 54°58' E 013°52'1010.0
2016-Aug-26 03:33N 54°55' E 013°36'1010.0
2016-Aug-26 02:33N 54°52' E 013°19'10 9.9
2016-Aug-26 01:34N 54°48' E 013°03'10 9.9
2016-Aug-26 00:34N 54°45' E 012°47'1010.0
2016-Aug-25 23:34N 54°40' E 012°32'10 9.7
2016-Aug-25 22:34N 54°35' E 012°18'9 9.1
2016-Aug-25 21:33N 54°27' E 012°12'8 8.3
2016-Aug-25 20:34N 54°25' E 011°58'9 9.3
2016-Aug-25 19:34N 54°26' E 011°42'9 8.9
2016-Aug-25 18:34N 54°30' E 011°28'8 8.2
2016-Aug-25 17:34N 54°34' E 011°16'8 8.2
2016-Aug-25 16:34N 54°38' E 011°03'8 8.0
2016-Aug-25 15:33N 54°42' E 010°51'9 9.0
2016-Aug-25 14:34N 54°51' E 010°52'10 9.9
2016-Aug-25 13:34N 54°60' E 011°00'1111.0
2016-Aug-25 12:34N 55°10' E 011°04'1010.2
2016-Aug-25 11:32N 55°21' E 011°02'1411.0
2016-Aug-25 10:17N 55°33' E 010°50'810.1
2016-Aug-25 09:30N 55°40' E 010°46'1010.3
2016-Aug-25 08:33N 55°50' E 010°49'1111.0
2016-Aug-25 07:32N 55°59' E 011°01'1111.4
2016-Aug-25 06:34N 56°10' E 011°05'20 9.8
2016-Aug-25 04:34N 56°29' E 011°15'1110.3
2016-Aug-25 03:31N 56°35' E 011°30'9 9.5
2016-Aug-25 02:33N 56°41' E 011°43'8 7.6
2016-Aug-25 01:33N 56°48' E 011°51'9 9.0
2016-Aug-25 00:33N 56°56' E 011°45'9 8.7
2016-Aug-24 23:33N 57°04' E 011°40'9 8.6
2016-Aug-24 22:34N 57°12' E 011°34'9 8.9
2016-Aug-24 21:32N 57°21' E 011°29'8 8.4
2016-Aug-24 20:33N 57°29' E 011°24'6 6.0
2016-Aug-24 19:34N 57°34' E 011°20'3 3.5
2016-Aug-24 18:33N 57°37' E 011°18'5 5.4
2016-Aug-24 17:33N 57°43' E 011°14'9 8.8
2016-Aug-24 16:33N 57°51' E 011°09'8 8.0
2016-Aug-24 15:33N 57°59' E 011°08'8 8.0
2016-Aug-24 14:34N 58°07' E 011°08'8 7.5
2016-Aug-24 13:32N 58°14' E 011°10'9 9.6
2016-Aug-24 12:33N 58°21' E 011°24'0 0.0
2016-Aug-23 12:27N 58°21' E 011°24'1 1.0
2016-Aug-23 11:33N 58°20' E 011°23'8 7.7
2016-Aug-23 10:32N 58°15' E 011°12'7 6.6
2016-Aug-23 09:31N 58°09' E 011°06'1212.4
2016-Aug-23 08:32N 57°57' E 011°01'1212.6
2016-Aug-23 07:33N 57°45' E 010°55'1111.2
2016-Aug-23 06:33N 57°37' E 011°09'1212.4
2016-Aug-23 05:33N 57°28' E 011°25'1312.5
2016-Aug-23 04:33N 57°16' E 011°33'1312.7
2016-Aug-23 03:33N 57°04' E 011°41'1312.7
2016-Aug-23 02:33N 56°52' E 011°48'1211.5
2016-Aug-23 01:33N 56°41' E 011°49'8411.2
2016-Aug-22 18:04N 55°21' E 011°02'611.1
2016-Aug-22 17:33N 55°16' E 011°05'1111.1
2016-Aug-22 16:33N 55°05' E 010°59'1211.7
2016-Aug-22 15:33N 54°54' E 010°52'1212.0
2016-Aug-22 14:33N 54°43' E 010°47'1211.7
2016-Aug-22 13:34N 54°36' E 011°04'1212.3
2016-Aug-22 12:33N 54°32' E 011°24'1212.4
2016-Aug-22 11:33N 54°27' E 011°43'1212.0
2016-Aug-22 10:33N 54°27' E 012°04'10 9.7
2016-Aug-22 09:33N 54°34' E 012°15'9 9.4
2016-Aug-22 08:33N 54°40' E 012°27'4711.4
2016-Aug-22 04:29N 54°59' E 013°41'1212.6
2016-Aug-22 03:33N 55°03' E 014°00'1211.8
2016-Aug-22 02:33N 55°11' E 014°15'1212.1
2016-Aug-22 01:33N 55°21' E 014°27'1211.9
2016-Aug-22 00:33N 55°28' E 014°43'1211.9
2016-Aug-21 23:33N 55°34' E 015°02'1211.7
2016-Aug-21 22:33N 55°39' E 015°21'1211.8
2016-Aug-21 21:33N 55°41' E 015°41'33811.3
2016-Aug-20 15:31N 59°37' E 023°16'1212.6
2016-Aug-20 14:33N 59°40' E 023°39'1312.7
2016-Aug-20 13:33N 59°44' E 024°03'1412.4
2016-Aug-20 12:24N 59°47' E 024°31'1212.4
2016-Aug-20 11:25N 59°50' E 024°54'3912.5
2016-Aug-20 08:19N 59°58' E 026°09'912.3
2016-Aug-20 07:34N 60°01' E 026°27'1212.3
2016-Aug-20 06:33N 59°60' E 026°52'1211.7
2016-Aug-20 05:32N 60°03' E 027°15'1212.5
2016-Aug-20 04:33N 60°09' E 027°37'1111.5
2016-Aug-20 03:33N 60°10' E 027°59'1212.2
2016-Aug-20 02:33N 60°06' E 028°22'1010.0
2016-Aug-20 01:33N 59°59' E 028°36'9 9.4
2016-Aug-20 00:33N 59°50' E 028°26'8 7.9
2016-Aug-19 23:33N 59°43' E 028°26'  
Track history (hours):
 
Tides and Currents Weather Stations Pressure Air Temp Water Temp Dewpoint Dewpoint Depression Visibility Wind Speed Wind Dir Waves Ship Positions

Scf Baltica

Last reported at 2016-Aug-29 23:29 UTC. Time now 2016-Aug-30 05:02 UTC.
Position N 60°20' E 028°42'.

Length 250 m; draft 9.1 m.

Type: Ship. MMSI: 636012813.

Date/timePositionNaut miles runAvg speedWind from/ knotsBaromVisibWave heightAir tempDewpointWater temp
2016-Aug-29 23:29N 60°20' E 028°42'1 1.6
2016-Aug-29 22:33N 60°19' E 028°43'7 7.2
2016-Aug-29 21:34N 60°11' E 028°44'1010.4
2016-Aug-29 20:33N 60°02' E 028°34'3 2.7
2016-Aug-29 19:32N 60°01' E 028°29'0 0.0
2016-Aug-29 18:32N 60°01' E 028°29'0 0.0
2016-Aug-29 17:23N 60°01' E 028°29'0 0.0
2016-Aug-29 16:23N 60°01' E 028°29'0 0.0
2016-Aug-29 15:26N 60°01' E 028°29'0 0.0
2016-Aug-29 14:26N 60°01' E 028°29'0 0.0
2016-Aug-29 13:26N 60°01' E 028°29'0 0.0
2016-Aug-29 12:29N 60°01' E 028°29'0 0.0
2016-Aug-29 11:29N 60°01' E 028°29'0 0.0
2016-Aug-29 10:29N 60°01' E 028°29'0 0.0
2016-Aug-29 09:32N 60°01' E 028°29'0 0.0
2016-Aug-29 08:32N 60°01' E 028°29'0 0.0
2016-Aug-29 07:32N 60°01' E 028°29'0 0.0
2016-Aug-29 06:32N 60°01' E 028°29'0 0.0
2016-Aug-29 05:32N 60°01' E 028°29'0 0.0
2016-Aug-29 04:32N 60°01' E 028°29'0 0.0
2016-Aug-29 03:32N 60°01' E 028°29'0 0.1
2016-Aug-29 02:23N 60°01' E 028°29'0 0.0
2016-Aug-29 01:26N 60°01' E 028°29'0 0.0
2016-Aug-29 00:26N 60°01' E 028°29'0 0.0
2016-Aug-28 23:26N 60°01' E 028°29'0 0.0
2016-Aug-28 22:29N 60°01' E 028°29'0 0.0
2016-Aug-28 21:29N 60°01' E 028°29'0 0.0
2016-Aug-28 20:32N 60°01' E 028°29'0 0.1
2016-Aug-28 19:32N 60°01' E 028°29'0 0.1
2016-Aug-28 18:32N 60°01' E 028°29'0 0.1
2016-Aug-28 17:32N 60°01' E 028°29'0 0.0
2016-Aug-28 16:32N 60°01' E 028°29'0 0.0
2016-Aug-28 15:32N 60°01' E 028°29'1 0.6
2016-Aug-28 14:33N 60°01' E 028°30'9 8.5
2016-Aug-28 13:33N 60°07' E 028°17'10 9.7
2016-Aug-28 12:33N 60°09' E 027°58'11 9.1
2016-Aug-28 11:23N 60°08' E 027°37'910.3
2016-Aug-28 10:32N 60°03' E 027°22'19 9.4
2016-Aug-28 08:33N 59°59' E 026°46'1410.0
2016-Aug-28 07:09N 59°57' E 026°18'38 9.9
2016-Aug-28 03:19N 59°48' E 025°04'7 9.8
2016-Aug-28 02:33N 59°46' E 024°50'12 9.8
2016-Aug-28 01:22N 59°44' E 024°27'17 9.6
2016-Aug-27 23:33N 59°38' E 023°55'10 9.7
2016-Aug-27 22:33N 59°35' E 023°36'10 9.9
2016-Aug-27 21:31N 59°32' E 023°17'21 9.7
2016-Aug-27 19:19N 59°25' E 022°38'8 9.7
2016-Aug-27 18:31N 59°20' E 022°26'1010.0
2016-Aug-27 17:33N 59°14' E 022°11'28510.1
2016-Aug-26 13:20N 55°48' E 016°04'910.4
2016-Aug-26 12:30N 55°44' E 015°51'1010.8
2016-Aug-26 11:33N 55°39' E 015°35'1111.0
2016-Aug-26 10:34N 55°34' E 015°18'1110.6
2016-Aug-26 09:33N 55°29' E 015°01'1010.4
2016-Aug-26 08:33N 55°25' E 014°44'1010.2
2016-Aug-26 07:34N 55°18' E 014°32'1010.2
2016-Aug-26 06:33N 55°10' E 014°20'20 9.9
2016-Aug-26 04:32N 54°58' E 013°52'1010.0
2016-Aug-26 03:33N 54°55' E 013°36'1010.0
2016-Aug-26 02:33N 54°52' E 013°19'10 9.9
2016-Aug-26 01:34N 54°48' E 013°03'10 9.9
2016-Aug-26 00:34N 54°45' E 012°47'1010.0
2016-Aug-25 23:34N 54°40' E 012°32'10 9.7
2016-Aug-25 22:34N 54°35' E 012°18'9 9.1
2016-Aug-25 21:33N 54°27' E 012°12'8 8.3
2016-Aug-25 20:34N 54°25' E 011°58'9 9.3
2016-Aug-25 19:34N 54°26' E 011°42'9 8.9
2016-Aug-25 18:34N 54°30' E 011°28'8 8.2
2016-Aug-25 17:34N 54°34' E 011°16'8 8.2
2016-Aug-25 16:34N 54°38' E 011°03'8 8.0
2016-Aug-25 15:33N 54°42' E 010°51'9 9.0
2016-Aug-25 14:34N 54°51' E 010°52'10 9.9
2016-Aug-25 13:34N 54°60' E 011°00'1111.0
2016-Aug-25 12:34N 55°10' E 011°04'1010.2
2016-Aug-25 11:32N 55°21' E 011°02'1411.0
2016-Aug-25 10:17N 55°33' E 010°50'810.1
2016-Aug-25 09:30N 55°40' E 010°46'1010.3
2016-Aug-25 08:33N 55°50' E 010°49'1111.0
2016-Aug-25 07:32N 55°59' E 011°01'1111.4
2016-Aug-25 06:34N 56°10' E 011°05'20 9.8
2016-Aug-25 04:34N 56°29' E 011°15'1110.3
2016-Aug-25 03:31N 56°35' E 011°30'9 9.5
2016-Aug-25 02:33N 56°41' E 011°43'8 7.6
2016-Aug-25 01:33N 56°48' E 011°51'9 9.0
2016-Aug-25 00:33N 56°56' E 011°45'9 8.7
2016-Aug-24 23:33N 57°04' E 011°40'9 8.6
2016-Aug-24 22:34N 57°12' E 011°34'9 8.9
2016-Aug-24 21:32N 57°21' E 011°29'8 8.4
2016-Aug-24 20:33N 57°29' E 011°24'6 6.0
2016-Aug-24 19:34N 57°34' E 011°20'3 3.5
2016-Aug-24 18:33N 57°37' E 011°18'5 5.4
2016-Aug-24 17:33N 57°43' E 011°14'9 8.8
2016-Aug-24 16:33N 57°51' E 011°09'8 8.0
2016-Aug-24 15:33N 57°59' E 011°08'8 8.0
2016-Aug-24 14:34N 58°07' E 011°08'8 7.5
2016-Aug-24 13:32N 58°14' E 011°10'9 9.6
2016-Aug-24 12:33N 58°21' E 011°24'0 0.0
2016-Aug-23 12:27N 58°21' E 011°24'1 1.0
2016-Aug-23 11:33N 58°20' E 011°23'8 7.7
2016-Aug-23 10:32N 58°15' E 011°12'7 6.6
2016-Aug-23 09:31N 58°09' E 011°06'1212.4
2016-Aug-23 08:32N 57°57' E 011°01'1212.6
2016-Aug-23 07:33N 57°45' E 010°55'1111.2
2016-Aug-23 06:33N 57°37' E 011°09'1212.4
2016-Aug-23 05:33N 57°28' E 011°25'1312.5
2016-Aug-23 04:33N 57°16' E 011°33'1312.7
2016-Aug-23 03:33N 57°04' E 011°41'1312.7
2016-Aug-23 02:33N 56°52' E 011°48'1211.5
2016-Aug-23 01:33N 56°41' E 011°49'8411.2
2016-Aug-22 18:04N 55°21' E 011°02'611.1
2016-Aug-22 17:33N 55°16' E 011°05'1111.1
2016-Aug-22 16:33N 55°05' E 010°59'1211.7
2016-Aug-22 15:33N 54°54' E 010°52'1212.0
2016-Aug-22 14:33N 54°43' E 010°47'1211.7
2016-Aug-22 13:34N 54°36' E 011°04'1212.3
2016-Aug-22 12:33N 54°32' E 011°24'1212.4
2016-Aug-22 11:33N 54°27' E 011°43'1212.0
2016-Aug-22 10:33N 54°27' E 012°04'10 9.7
2016-Aug-22 09:33N 54°34' E 012°15'9 9.4
2016-Aug-22 08:33N 54°40' E 012°27'4711.4
2016-Aug-22 04:29N 54°59' E 013°41'1212.6
2016-Aug-22 03:33N 55°03' E 014°00'1211.8
2016-Aug-22 02:33N 55°11' E 014°15'1212.1
2016-Aug-22 01:33N 55°21' E 014°27'1211.9
2016-Aug-22 00:33N 55°28' E 014°43'1211.9
2016-Aug-21 23:33N 55°34' E 015°02'1211.7
2016-Aug-21 22:33N 55°39' E 015°21'1211.8
2016-Aug-21 21:33N 55°41' E 015°41'33811.3
2016-Aug-20 15:31N 59°37' E 023°16'1212.6
2016-Aug-20 14:33N 59°40' E 023°39'1312.7
2016-Aug-20 13:33N 59°44' E 024°03'1412.4
2016-Aug-20 12:24N 59°47' E 024°31'1212.4
2016-Aug-20 11:25N 59°50' E 024°54'3912.5
2016-Aug-20 08:19N 59°58' E 026°09'912.3
2016-Aug-20 07:34N 60°01' E 026°27'1212.3
2016-Aug-20 06:33N 59°60' E 026°52'1211.7
2016-Aug-20 05:32N 60°03' E 027°15'1212.5
2016-Aug-20 04:33N 60°09' E 027°37'1111.5
2016-Aug-20 03:33N 60°10' E 027°59'1212.2
2016-Aug-20 02:33N 60°06' E 028°22'1010.0
2016-Aug-20 01:33N 59°59' E 028°36'9 9.4
2016-Aug-20 00:33N 59°50' E 028°26'8 7.9
2016-Aug-19 23:33N 59°43' E 028°26'  

Dump ship's entire track history